Time;durP1;ratioP1;P1;durP2;ratioP2;P2;SDS_P1;SDS_P2;PMS_P1;PMS_P2;Temp;Humidity;BMP_temperature;BMP_pressure;BME280_temperature;BME280_humidity;BME280_pressure;Samples;Min_cycle;Max_cycle;Signal;HPM_P1;HPM_P2
2021/06/18 00:01:31;;;;;;;0.10;0.10;;;;;;;21.10;59.73;100771.09;5043745;28;20391;-87
2021/06/18 00:03:59;;;;;;;0.20;0.20;;;;;;;21.10;59.76;100767.50;5049073;28;20049;-87
2021/06/18 00:06:33;;;;;;;0.10;0.10;;;;;;;20.86;58.71;100739.53;5053142;28;20119;-86
2021/06/18 00:09:01;;;;;;;0.10;0.10;;;;;;;20.94;59.77;100746.09;5048800;28;20049;-87
2021/06/18 00:11:36;;;;;;;0.10;0.10;;;;;;;20.77;59.17;100725.06;5059855;28;20060;-89
2021/06/18 00:14:05;;;;;;;0.20;0.20;;;;;;;20.81;59.82;100731.50;5040906;28;20057;-88
2021/06/18 00:16:36;;;;;;;0.10;0.10;;;;;;;20.84;60.36;100765.91;5044762;28;20470;-87
2021/06/18 00:19:09;;;;;;;0.20;0.20;;;;;;;20.60;61.56;100758.44;5041056;28;20056;-88
2021/06/18 00:21:44;;;;;;;0.10;0.10;;;;;;;20.50;62.33;100773.53;5040061;28;20287;-88
2021/06/18 00:24:12;;;;;;;0.10;0.10;;;;;;;20.53;61.98;100764.53;5044313;28;20397;-88
2021/06/18 00:26:42;;;;;;;0.10;0.10;;;;;;;20.45;61.01;100744.16;5037525;28;20058;-87
2021/06/18 00:29:12;;;;;;;0.13;0.10;;;;;;;20.71;60.79;100765.13;5044910;28;20501;-87
2021/06/18 00:31:41;;;;;;;0.10;0.10;;;;;;;20.59;60.38;100751.28;5036476;28;20046;-88
2021/06/18 00:34:09;;;;;;;0.25;0.20;;;;;;;20.25;60.69;100709.97;5038827;28;20551;-87
2021/06/18 00:36:38;;;;;;;0.10;0.10;;;;;;;20.51;61.55;100758.56;5038485;28;20045;-88
2021/06/18 00:39:06;;;;;;;0.05;0.05;;;;;;;20.53;60.70;100761.78;5045822;28;20052;-88
2021/06/18 00:41:34;;;;;;;0.20;0.20;;;;;;;20.48;60.72;100748.19;5049104;28;20041;-88
2021/06/18 00:44:05;;;;;;;0.10;0.10;;;;;;;20.31;61.23;100727.13;5040015;28;20049;-88
2021/06/18 00:46:33;;;;;;;0.10;0.10;;;;;;;20.43;60.74;100746.47;5051210;28;20050;-88
2021/06/18 00:49:02;;;;;;;1.08;0.20;;;;;;;20.04;61.32;100699.00;5048868;28;20409;-88
2021/06/18 00:51:30;;;;;;;0.10;0.10;;;;;;;20.45;60.46;100748.88;5042872;28;20057;-88
2021/06/18 00:53:59;;;;;;;0.10;0.10;;;;;;;20.37;61.51;100745.88;5045992;28;20147;-87
2021/06/18 00:56:28;;;;;;;2.03;0.60;;;;;;;20.46;60.88;100756.03;5048687;28;20394;-88
2021/06/18 00:58:58;;;;;;;1.75;0.40;;;;;;;20.22;61.54;100725.25;5056631;28;20069;-87
2021/06/18 01:01:30;;;;;;;0.60;0.30;;;;;;;20.30;61.70;100739.31;5051688;28;20488;-88
2021/06/18 01:03:59;;;;;;;0.35;0.10;;;;;;;20.24;60.71;100738.72;5052174;28;20056;-87
2021/06/18 01:06:32;;;;;;;0.10;0.10;;;;;;;20.32;61.29;100759.94;5052105;28;20049;-88
2021/06/18 01:09:09;;;;;;;0.15;0.15;;;;;;;20.33;60.95;100756.03;5043446;28;20052;-87
2021/06/18 01:11:54;;;;;;;0.10;0.10;;;;;;;20.31;59.89;100744.50;5041404;28;20056;-88
2021/06/18 01:14:39;;;;;;;0.25;0.10;;;;;;;20.33;60.32;100755.22;5046600;28;20473;-88
2021/06/18 01:17:16;;;;;;;0.10;0.10;;;;;;;20.22;61.50;100750.13;5049553;28;20551;-88
2021/06/18 01:20:05;;;;;;;0.10;0.10;;;;;;;20.24;61.75;100757.28;5044558;28;20051;-87
2021/06/18 01:22:49;;;;;;;0.10;0.10;;;;;;;20.01;61.80;100733.66;5047526;28;20049;-86
2021/06/18 01:25:26;;;;;;;0.20;0.20;;;;;;;20.01;62.59;100750.22;5042486;28;20493;-88
2021/06/18 01:28:04;;;;;;;0.20;0.20;;;;;;;20.02;61.45;100749.09;5038860;28;20071;-88
2021/06/18 01:30:40;;;;;;;0.10;0.10;;;;;;;20.06;62.27;100763.00;5047549;28;20413;-87
2021/06/18 01:33:17;;;;;;;0.10;0.10;;;;;;;19.95;63.51;100757.09;5043557;28;20049;-88
2021/06/18 01:35:50;;;;;;;0.20;0.20;;;;;;;19.83;63.90;100754.31;5045414;28;20050;-87
2021/06/18 01:38:26;;;;;;;0.20;0.20;;;;;;;19.76;64.19;100756.78;5044114;28;20928;-87
2021/06/18 01:41:00;;;;;;;0.25;0.10;;;;;;;19.80;63.73;100752.25;5043197;28;20055;-88
2021/06/18 01:43:35;;;;;;;0.25;0.20;;;;;;;19.68;64.16;100741.94;5035420;28;20079;-85
2021/06/18 01:46:07;;;;;;;0.57;0.20;;;;;;;19.54;65.26;100754.09;5037578;28;20057;-89
2021/06/18 01:48:36;;;;;;;0.35;0.20;;;;;;;19.59;64.68;100755.81;5045823;28;20037;-88
2021/06/18 01:51:06;;;;;;;0.10;0.10;;;;;;;19.51;64.05;100740.97;5035202;28;20080;-88
2021/06/18 01:53:37;;;;;;;0.22;0.10;;;;;;;19.57;64.98;100747.09;5042000;28;20381;-88
2021/06/18 01:56:07;;;;;;;0.52;0.28;;;;;;;19.48;65.03;100747.16;5042349;28;20409;-88
2021/06/18 01:58:43;;;;;;;0.10;0.10;;;;;;;19.52;65.06;100741.75;5056046;28;20052;-87
2021/06/18 02:01:15;;;;;;;0.30;0.10;;;;;;;19.49;65.42;100743.25;5043441;28;20413;-87
2021/06/18 02:03:45;;;;;;;0.10;0.10;;;;;;;19.46;64.97;100740.34;5042567;28;20059;-87
2021/06/18 02:06:15;;;;;;;0.20;0.10;;;;;;;19.48;64.39;100735.31;5053325;28;20369;-88
2021/06/18 02:08:52;;;;;;;0.10;0.10;;;;;;;19.57;63.53;100735.22;5038909;28;20395;-86
2021/06/18 02:11:25;;;;;;;0.10;0.10;;;;;;;19.52;63.48;100723.25;5047617;28;20047;-87
2021/06/18 02:13:55;;;;;;;1.27;0.00;;;;;;;19.54;63.68;100725.66;5042826;28;20057;-87
2021/06/18 02:16:36;;;;;;;0.10;0.10;;;;;;;19.54;64.25;100731.19;5049914;28;20055;-87
2021/06/18 02:19:14;;;;;;;0.28;0.20;;;;;;;19.46;64.44;100721.03;5049471;28;20053;-87
2021/06/18 02:21:52;;;;;;;0.10;0.10;;;;;;;19.46;64.66;100732.06;5041943;28;20067;-87
2021/06/18 02:24:35;;;;;;;0.20;0.20;;;;;;;19.35;65.09;100737.22;5034241;28;20046;-88
2021/06/18 02:27:13;;;;;;;0.10;0.10;;;;;;;19.30;65.30;100727.19;5034205;28;20449;-86
2021/06/18 02:29:47;;;;;;;0.35;0.20;;;;;;;19.35;64.62;100734.47;5047267;28;20059;-88
2021/06/18 02:32:24;;;;;;;0.10;0.10;;;;;;;19.31;63.90;100736.28;5037340;28;20377;-87
2021/06/18 02:35:07;;;;;;;0.10;0.10;;;;;;;19.32;64.35;100748.91;5043252;28;20049;-88
2021/06/18 02:37:40;;;;;;;0.30;0.20;;;;;;;19.16;63.95;100730.22;5034092;28;20072;-88
2021/06/18 02:40:15;;;;;;;0.30;0.10;;;;;;;19.18;64.59;100744.50;5046251;28;20801;-89
2021/06/18 02:42:49;;;;;;;0.10;0.10;;;;;;;19.19;64.24;100735.06;5041804;28;20056;-88
2021/06/18 02:45:23;;;;;;;0.10;0.10;;;;;;;19.18;63.95;100740.91;5044598;28;20055;-88
2021/06/18 02:48:03;;;;;;;0.70;0.17;;;;;;;19.02;64.63;100716.69;5049861;28;20053;-88
2021/06/18 02:50:40;;;;;;;0.10;0.10;;;;;;;19.15;64.49;100741.59;5043894;28;20413;-88
2021/06/18 02:53:17;;;;;;;0.30;0.20;;;;;;;19.07;64.13;100726.75;5038170;28;20053;-87
2021/06/18 02:55:50;;;;;;;0.13;0.13;;;;;;;19.11;64.76;100732.38;5046088;28;20046;-88
2021/06/18 02:58:23;;;;;;;0.10;0.10;;;;;;;19.11;64.79;100729.63;5040729;28;20482;-89
2021/06/18 03:00:55;;;;;;;0.25;0.10;;;;;;;19.02;64.74;100724.19;5041247;28;20052;-87
2021/06/18 03:03:38;;;;;;;0.20;0.20;;;;;;;19.02;64.80;100729.69;5040630;28;20401;-87
2021/06/18 03:06:16;;;;;;;0.20;0.10;;;;;;;19.01;64.21;100723.34;5041626;28;20052;-88
2021/06/18 03:08:56;;;;;;;0.20;0.20;;;;;;;19.00;64.42;100716.25;5042996;28;20057;-88
2021/06/18 03:11:31;;;;;;;0.20;0.20;;;;;;;18.98;64.52;100732.31;5043336;28;20470;-88
2021/06/18 03:14:09;;;;;;;0.17;0.17;;;;;;;18.99;64.81;100720.13;5042035;28;20058;-87
2021/06/18 03:16:42;;;;;;;0.10;0.10;;;;;;;19.08;63.61;100720.06;5044997;28;20135;-88
2021/06/18 03:19:46;;;;;;;0.10;0.10;;;;;;;19.01;64.84;100731.63;5046158;28;20071;-89
2021/06/18 03:22:23;;;;;;;0.00;0.00;;;;;;;18.98;64.67;100731.50;5037501;28;20064;-90
2021/06/18 03:24:56;;;;;;;0.15;0.15;;;;;;;18.97;64.08;100725.16;5040043;28;20504;-88
2021/06/18 03:27:26;;;;;;;0.10;0.10;;;;;;;18.94;65.31;100736.09;5044766;28;20041;-87
2021/06/18 03:29:55;;;;;;;0.30;0.20;;;;;;;18.91;65.29;100736.75;5040158;28;20053;-88
2021/06/18 03:32:27;;;;;;;0.10;0.10;;;;;;;18.91;65.58;100734.81;5049916;28;20053;-87
2021/06/18 03:34:57;;;;;;;0.10;0.10;;;;;;;18.93;64.95;100737.22;5039707;28;20041;-88
2021/06/18 03:37:30;;;;;;;0.10;0.10;;;;;;;18.94;64.90;100733.31;5047225;28;20045;-88
2021/06/18 03:39:59;;;;;;;0.20;0.20;;;;;;;18.88;65.23;100734.66;5043251;28;20064;-88
2021/06/18 03:42:30;;;;;;;0.20;0.20;;;;;;;18.93;65.09;100749.03;5043285;28;20053;-86
2021/06/18 03:45:05;;;;;;;0.10;0.10;;;;;;;18.94;65.45;100738.84;5035672;28;20509;-88
2021/06/18 03:47:35;;;;;;;0.10;0.10;;;;;;;18.88;65.78;100729.13;5053518;28;20056;-87
2021/06/18 03:50:11;;;;;;;0.40;0.15;;;;;;;18.91;65.18;100728.50;5053379;28;20049;-88
2021/06/18 03:52:41;;;;;;;0.20;0.20;;;;;;;18.96;66.29;100737.38;5046434;28;20071;-88
2021/06/18 03:55:12;;;;;;;0.20;0.20;;;;;;;18.91;66.64;100734.81;5025281;28;20385;-88
2021/06/18 03:57:42;;;;;;;0.10;0.10;;;;;;;18.91;66.59;100745.03;5042613;28;20103;-89
2021/06/18 04:00:17;;;;;;;0.10;0.10;;;;;;;18.94;65.64;100739.63;5045732;28;20045;-88
2021/06/18 04:02:48;;;;;;;0.10;0.10;;;;;;;18.94;66.50;100738.84;5049591;28;20057;-89
2021/06/18 04:05:26;;;;;;;0.10;0.10;;;;;;;18.88;66.00;100734.66;5048220;28;20049;-88
2021/06/18 04:08:02;;;;;;;0.10;0.10;;;;;;;18.98;65.78;100734.28;5041456;28;20049;-87
2021/06/18 04:10:35;;;;;;;0.20;0.20;;;;;;;19.03;65.25;100737.63;5038581;28;20049;-88
2021/06/18 04:13:11;;;;;;;0.90;0.10;;;;;;;19.04;65.03;100730.16;5041142;28;20045;-87
2021/06/18 04:15:41;;;;;;;0.40;0.20;;;;;;;19.08;66.00;100731.09;5038310;28;20044;-88
2021/06/18 04:18:11;;;;;;;0.10;0.10;;;;;;;19.10;65.80;100731.59;5040465;28;20053;-87
2021/06/18 04:20:41;;;;;;;0.10;0.10;;;;;;;19.03;66.04;100712.00;5044509;28;20497;-88
2021/06/18 04:23:17;;;;;;;0.20;0.20;;;;;;;19.17;65.92;100731.03;5051147;28;20071;-88
2021/06/18 04:25:50;;;;;;;0.10;0.10;;;;;;;19.17;66.25;100726.31;5044464;28;20064;-88
2021/06/18 04:28:25;;;;;;;0.10;0.10;;;;;;;19.25;65.93;100737.63;5047214;28;20060;-88
2021/06/18 04:30:59;;;;;;;0.20;0.10;;;;;;;19.25;66.08;100735.69;5035504;28;20057;-88
2021/06/18 04:33:58;;;;;;;0.13;0.10;;;;;;;19.29;66.09;100739.38;5040756;28;20053;-87
2021/06/18 04:36:33;;;;;;;0.20;0.20;;;;;;;19.32;65.93;100740.63;5048679;28;20597;-87
2021/06/18 04:39:07;;;;;;;0.45;0.20;;;;;;;19.27;66.68;100727.06;5046413;28;20054;-87
2021/06/18 04:41:49;;;;;;;0.17;0.17;;;;;;;19.25;65.95;100721.06;5037880;28;20041;-87
2021/06/18 04:44:22;;;;;;;0.20;0.15;;;;;;;19.35;64.69;100734.47;5040897;28;20076;-87
2021/06/18 04:46:56;;;;;;;0.15;0.10;;;;;;;19.37;65.06;100732.16;5047177;28;20057;-88
2021/06/18 04:49:31;;;;;;;0.20;0.20;;;;;;;19.51;65.53;100737.38;5043488;28;20497;-88
2021/06/18 04:52:08;;;;;;;0.20;0.20;;;;;;;19.62;65.94;100746.84;5034785;28;20050;-88
2021/06/18 04:54:37;;;;;;;0.17;0.17;;;;;;;19.66;67.03;100741.47;5036517;28;20060;-88
2021/06/18 04:57:10;;;;;;;0.25;0.10;;;;;;;19.69;65.35;100733.31;5044614;28;20048;-89
2021/06/18 04:59:43;;;;;;;0.10;0.10;;;;;;;19.69;65.89;100722.28;5050039;28;20053;-88
2021/06/18 05:02:17;;;;;;;0.20;0.10;;;;;;;19.80;65.66;100743.97;5042728;28;20080;-88
2021/06/18 05:04:50;;;;;;;0.10;0.10;;;;;;;19.88;65.99;100735.56;5043033;28;20485;-88
2021/06/18 05:07:25;;;;;;;0.13;0.10;;;;;;;20.04;65.74;100732.97;5040985;28;20132;-88
2021/06/18 05:10:00;;;;;;;0.20;0.20;;;;;;;20.59;64.47;100729.16;5041318;28;20041;-89
2021/06/18 05:12:28;;;;;;;0.20;0.20;;;;;;;22.35;58.71;100725.81;5033018;28;20046;-87
2021/06/18 05:14:56;;;;;;;0.28;0.20;;;;;;;23.58;55.21;100720.94;5039067;28;20045;-89
2021/06/18 05:17:24;;;;;;;0.17;0.17;;;;;;;24.49;52.82;100716.94;5039197;28;20401;-88
2021/06/18 05:19:57;;;;;;;0.20;0.20;;;;;;;25.16;50.50;100712.69;5041604;28;20049;-89
2021/06/18 05:22:27;;;;;;;0.13;0.13;;;;;;;26.02;48.09;100716.44;5032964;28;20049;-88
2021/06/18 05:24:55;;;;;;;0.20;0.20;;;;;;;25.95;48.06;100710.78;5039136;28;20383;-89
2021/06/18 05:27:29;;;;;;;0.28;0.20;;;;;;;26.43;45.81;100709.94;5048453;28;20064;-88
2021/06/18 05:30:00;;;;;;;0.10;0.10;;;;;;;27.30;44.63;100714.81;5038019;28;20389;-89
2021/06/18 05:32:33;;;;;;;0.15;0.15;;;;;;;27.02;44.81;100723.88;5052822;28;20056;-89
2021/06/18 05:35:02;;;;;;;0.20;0.20;;;;;;;27.20;44.60;100726.75;5037978;28;20048;-89
2021/06/18 05:37:34;;;;;;;0.45;0.20;;;;;;;27.01;44.80;100722.28;5043050;28;20525;-87
2021/06/18 05:40:08;;;;;;;0.30;0.30;;;;;;;27.69;44.05;100721.72;5044315;28;20057;-89
2021/06/18 05:42:42;;;;;;;0.10;0.10;;;;;;;27.77;44.32;100728.94;5038143;28;20056;-88
2021/06/18 05:45:11;;;;;;;0.20;0.10;;;;;;;27.63;44.65;100728.91;5043389;28;20053;-89
2021/06/18 05:47:39;;;;;;;0.22;0.13;;;;;;;26.70;47.39;100723.72;5038828;28;20052;-88
2021/06/18 05:50:09;;;;;;;0.75;0.30;;;;;;;26.34;48.05;100729.81;5045607;28;20055;-88
2021/06/18 05:52:44;;;;;;;0.10;0.10;;;;;;;25.61;49.90;100719.19;5043840;28;20064;-88
2021/06/18 05:55:17;;;;;;;0.10;0.10;;;;;;;25.34;50.01;100741.59;5040758;28;20045;-88
2021/06/18 05:57:53;;;;;;;0.15;0.10;;;;;;;25.08;51.06;100732.09;5038655;28;20049;-86
2021/06/18 06:00:28;;;;;;;0.10;0.10;;;;;;;25.28;50.28;100723.56;5037798;28;20374;-87
2021/06/18 06:03:03;;;;;;;0.13;0.13;;;;;;;25.04;51.36;100731.25;5032280;28;20553;-88
2021/06/18 06:05:31;;;;;;;0.13;0.13;;;;;;;24.95;52.35;100734.31;5045169;28;20057;-88
2021/06/18 06:08:09;;;;;;;0.10;0.10;;;;;;;24.91;52.50;100736.25;5045173;28;20045;-87
2021/06/18 06:10:42;;;;;;;0.10;0.10;;;;;;;24.68;52.35;100741.06;5031017;28;20045;-88
2021/06/18 06:13:17;;;;;;;0.10;0.10;;;;;;;24.36;54.79;100739.38;5041654;28;20052;-87
2021/06/18 06:15:50;;;;;;;0.30;0.20;;;;;;;24.24;55.54;100739.59;5035430;28;20048;-87
2021/06/18 06:18:22;;;;;;;0.10;0.10;;;;;;;24.25;54.33;100741.19;5039407;28;20049;-88
2021/06/18 06:20:59;;;;;;;0.10;0.10;;;;;;;24.19;55.79;100731.56;5032239;28;20044;-86
2021/06/18 06:23:29;;;;;;;0.10;0.10;;;;;;;24.31;54.05;100741.69;5039793;28;20591;-86
2021/06/18 06:26:02;;;;;;;0.10;0.10;;;;;;;24.44;53.83;100748.63;5043736;28;20572;-86
2021/06/18 06:28:31;;;;;;;0.10;0.10;;;;;;;24.64;55.64;100749.38;5034729;28;20053;-88
2021/06/18 06:31:06;;;;;;;0.20;0.10;;;;;;;24.79;54.12;100748.41;5039542;28;20887;-87
2021/06/18 06:33:40;;;;;;;0.10;0.10;;;;;;;24.97;54.98;100742.28;5035009;28;20433;-87
2021/06/18 06:36:09;;;;;;;0.10;0.10;;;;;;;25.08;52.58;100751.59;5037108;28;20454;-88
2021/06/18 06:38:45;;;;;;;0.10;0.10;;;;;;;25.04;49.69;100742.38;5032677;28;20647;-89
2021/06/18 06:41:14;;;;;;;0.10;0.10;;;;;;;25.00;49.69;100751.88;5037458;28;20490;-89
2021/06/18 06:43:51;;;;;;;0.10;0.10;;;;;;;25.02;50.42;100752.28;5036703;28;20057;-90
2021/06/18 06:46:21;;;;;;;0.20;0.20;;;;;;;25.09;49.80;100753.19;5039931;28;20080;-89
2021/06/18 06:48:55;;;;;;;0.10;0.10;;;;;;;25.14;50.90;100752.06;5039605;28;20053;-88
2021/06/18 06:51:28;;;;;;;0.10;0.10;;;;;;;25.03;54.33;100751.13;5037287;28;20044;-88
2021/06/18 06:54:00;;;;;;;0.20;0.20;;;;;;;25.30;52.58;100752.66;5041914;28;20053;-88
2021/06/18 06:56:36;;;;;;;0.10;0.10;;;;;;;25.31;54.82;100753.44;5037074;28;20413;-88
2021/06/18 06:59:04;;;;;;;0.10;0.10;;;;;;;25.33;53.57;100753.91;5038416;28;20056;-87
2021/06/18 07:01:34;;;;;;;0.80;0.10;;;;;;;25.22;53.94;100747.38;5037369;28;20068;-88
2021/06/18 07:04:07;;;;;;;0.20;0.20;;;;;;;25.53;53.43;100746.16;5031148;28;20037;-90
2021/06/18 07:06:40;;;;;;;0.20;0.20;;;;;;;25.70;54.02;100755.09;5038268;28;20049;-89
2021/06/18 07:09:17;;;;;;;0.10;0.10;;;;;;;25.65;51.51;100742.31;5034335;28;20805;-87
2021/06/18 07:11:53;;;;;;;0.10;0.10;;;;;;;25.79;51.93;100738.88;5045317;28;20056;-88
2021/06/18 07:14:22;;;;;;;0.10;0.10;;;;;;;25.85;50.68;100756.06;5044610;28;20052;-87
2021/06/18 07:16:56;;;;;;;0.20;0.20;;;;;;;25.78;49.62;100754.81;5042476;28;20493;-88
2021/06/18 07:19:30;;;;;;;0.10;0.10;;;;;;;26.00;51.74;100765.38;5035483;28;20061;-87
2021/06/18 07:22:05;;;;;;;0.40;0.20;;;;;;;26.06;47.81;100758.28;5033044;28;20046;-87
2021/06/18 07:24:40;;;;;;;0.13;0.10;;;;;;;25.92;53.10;100759.72;5034616;28;20045;-87
2021/06/18 07:27:09;;;;;;;0.10;0.10;;;;;;;25.96;50.58;100756.97;5031008;28;20500;-86
2021/06/18 07:29:43;;;;;;;0.10;0.10;;;;;;;26.11;51.42;100753.13;5036313;28;20049;-88
2021/06/18 07:32:11;;;;;;;0.10;0.10;;;;;;;26.05;53.21;100757.47;5038853;28;20057;-88
2021/06/18 07:34:45;;;;;;;0.20;0.20;;;;;;;26.07;51.85;100757.09;5033619;28;20049;-88
2021/06/18 07:37:13;;;;;;;0.10;0.10;;;;;;;26.33;51.19;100753.31;5036017;28;20417;-87
2021/06/18 07:39:48;;;;;;;0.10;0.10;;;;;;;26.46;48.24;100751.03;5034983;28;20041;-88
2021/06/18 07:42:22;;;;;;;0.10;0.10;;;;;;;26.52;48.29;100765.44;5033798;28;20049;-89
2021/06/18 07:44:56;;;;;;;0.70;0.20;;;;;;;26.57;50.89;100767.84;5045055;28;20057;-86
2021/06/18 07:47:30;;;;;;;0.10;0.10;;;;;;;26.52;50.30;100765.44;5034477;28;20050;-88
2021/06/18 07:50:03;;;;;;;0.10;0.10;;;;;;;26.60;47.50;100748.34;5033202;28;20654;-89
2021/06/18 07:52:37;;;;;;;0.22;0.20;;;;;;;26.69;52.40;100747.22;5044473;28;20049;-87
2021/06/18 07:55:17;;;;;;;0.10;0.10;;;;;;;26.77;49.62;100751.69;5041596;28;20056;-87
2021/06/18 07:57:53;;;;;;;0.20;0.20;;;;;;;26.80;51.46;100742.50;5032792;28;20064;-87
2021/06/18 08:00:28;;;;;;;0.10;0.10;;;;;;;26.93;50.89;100757.75;5035890;28;20060;-87
2021/06/18 08:03:06;;;;;;;0.10;0.10;;;;;;;27.04;52.16;100749.44;5041696;28;20049;-88
2021/06/18 08:05:40;;;;;;;0.43;0.10;;;;;;;27.09;52.38;100753.84;5051134;28;20053;-88
2021/06/18 08:08:08;;;;;;;0.10;0.10;;;;;;;27.33;45.71;100743.97;5048919;28;20053;-89
2021/06/18 08:10:43;;;;;;;0.10;0.10;;;;;;;27.40;47.65;100746.00;5037529;28;20049;-89
2021/06/18 08:13:16;;;;;;;0.40;0.10;;;;;;;27.36;46.63;100732.03;5035913;28;20049;-87
2021/06/18 08:15:50;;;;;;;0.10;0.10;;;;;;;27.20;46.76;100743.50;5034141;28;20049;-88
2021/06/18 08:18:18;;;;;;;0.10;0.10;;;;;;;27.39;46.01;100736.03;5034589;28;20049;-84
2021/06/18 08:20:57;;;;;;;0.10;0.10;;;;;;;27.30;48.53;100709.22;5037887;28;20061;-87
2021/06/18 08:23:35;;;;;;;0.20;0.20;;;;;;;27.62;47.96;100738.47;5035288;28;20060;-86
2021/06/18 08:26:10;;;;;;;0.10;0.10;;;;;;;27.70;49.06;100742.88;5039829;28;20070;-89
2021/06/18 08:28:45;;;;;;;0.10;0.10;;;;;;;27.93;44.71;100728.53;5035525;28;20045;-84
2021/06/18 08:31:14;;;;;;;0.10;0.10;;;;;;;27.86;48.39;100713.78;5031776;28;21294;-88
2021/06/18 08:33:42;;;;;;;0.10;0.10;;;;;;;27.81;44.11;100712.97;5029739;28;20060;-87
2021/06/18 08:36:15;;;;;;;0.15;0.15;;;;;;;28.06;44.16;100748.53;5029057;28;20147;-88
2021/06/18 08:38:48;;;;;;;0.70;0.10;;;;;;;28.08;45.09;100745.38;5029803;28;20060;-88
2021/06/18 08:41:24;;;;;;;0.13;0.13;;;;;;;28.21;46.54;100728.97;5028935;28;20067;-86
2021/06/18 08:43:54;;;;;;;0.20;0.10;;;;;;;28.36;43.75;100724.97;5028190;28;20056;-88
2021/06/18 08:46:29;;;;;;;0.20;0.20;;;;;;;28.36;46.43;100715.78;5027816;28;20052;-88
2021/06/18 08:48:57;;;;;;;0.22;0.15;;;;;;;28.30;48.40;100720.97;5018346;28;20142;-87
2021/06/18 08:51:31;;;;;;;0.10;0.10;;;;;;;28.38;46.73;100714.19;5026945;28;20045;-88
2021/06/18 08:54:07;;;;;;;0.00;0.00;;;;;;;28.42;46.81;100686.16;5031101;28;20053;-85
2021/06/18 08:56:39;;;;;;;0.10;0.10;;;;;;;28.78;43.65;100717.72;5029830;28;20048;-86
2021/06/18 08:59:09;;;;;;;0.38;0.10;;;;;;;28.71;42.45;100714.13;5034495;28;20075;-86
2021/06/18 09:01:43;;;;;;;0.10;0.10;;;;;;;28.76;44.05;100713.72;5038667;28;21330;-88
2021/06/18 09:04:13;;;;;;;0.10;0.10;;;;;;;28.74;47.74;100705.72;5027197;28;20064;-86
2021/06/18 09:06:42;;;;;;;0.40;0.15;;;;;;;28.91;45.17;100714.47;5024803;28;20056;-87
2021/06/18 09:09:16;;;;;;;0.10;0.10;;;;;;;28.65;43.08;100685.75;5023418;28;21040;-85
2021/06/18 09:11:48;;;;;;;0.10;0.10;;;;;;;29.09;42.78;100708.81;5039078;28;20052;-86
2021/06/18 09:14:22;;;;;;;0.10;0.10;;;;;;;28.98;44.94;100673.22;5040953;28;20060;-86
2021/06/18 09:17:16;;;;;;;0.10;0.10;;;;;;;29.28;42.14;100708.34;5037182;28;20048;-88
2021/06/18 09:19:49;;;;;;;0.10;0.10;;;;;;;29.06;40.01;100671.19;5022426;28;20056;-86
2021/06/18 09:22:20;;;;;;;0.10;0.10;;;;;;;29.30;41.43;100699.50;5027957;28;20048;-87
2021/06/18 09:24:58;;;;;;;0.22;0.20;;;;;;;29.38;44.98;100691.88;5021091;28;20052;-88
2021/06/18 09:27:33;;;;;;;0.10;0.10;;;;;;;29.55;39.31;100684.56;5024051;28;20037;-88
2021/06/18 09:30:18;;;;;;;0.32;0.20;;;;;;;29.75;40.09;100685.59;5035555;28;20052;-85
2021/06/18 09:33:00;;;;;;;0.22;0.10;;;;;;;29.48;46.12;100677.75;5034863;28;20052;-85
2021/06/18 09:35:30;;;;;;;0.28;0.10;;;;;;;29.64;42.54;100685.69;5039149;28;20057;-87
2021/06/18 09:38:00;;;;;;;0.10;0.10;;;;;;;29.52;41.19;100669.34;5042554;28;20048;-87
2021/06/18 09:40:31;;;;;;;0.10;0.10;;;;;;;29.71;41.69;100687.63;5046891;28;20034;-87
2021/06/18 09:43:08;;;;;;;0.10;0.10;;;;;;;29.84;41.40;100697.19;5046111;28;20056;-88
2021/06/18 09:45:39;;;;;;;0.38;0.10;;;;;;;29.89;42.46;100692.34;5048122;28;20667;-89
2021/06/18 09:48:14;;;;;;;0.10;0.10;;;;;;;30.05;41.32;100697.41;5029998;28;20060;-89
2021/06/18 09:50:49;;;;;;;0.10;0.10;;;;;;;30.22;38.94;100695.66;5022037;28;20049;-86
2021/06/18 09:53:25;;;;;;;0.10;0.10;;;;;;;30.28;41.40;100699.63;5026278;28;20056;-88
2021/06/18 09:56:02;;;;;;;0.10;0.10;;;;;;;30.31;36.37;100693.16;5012572;28;20060;-86
2021/06/18 09:58:39;;;;;;;0.10;0.10;;;;;;;30.37;42.53;100685.91;5038513;28;20055;-85
2021/06/18 10:01:14;;;;;;;0.10;0.10;;;;;;;30.66;37.18;100685.63;5041428;28;20052;-87
2021/06/18 10:04:03;;;;;;;0.10;0.10;;;;;;;30.89;36.57;100684.13;5041914;28;20049;-88
2021/06/18 10:06:41;;;;;;;0.10;0.10;;;;;;;30.81;36.97;100678.63;5041234;28;20484;-87
2021/06/18 10:09:13;;;;;;;0.20;0.10;;;;;;;31.13;36.58;100685.88;5036951;28;20056;-87
2021/06/18 10:11:46;;;;;;;0.10;0.10;;;;;;;30.82;39.51;100670.97;5043392;28;20485;-88
2021/06/18 10:14:16;;;;;;;0.40;0.10;;;;;;;30.90;39.01;100680.91;5039459;28;20063;-86
2021/06/18 10:16:49;;;;;;;0.13;0.10;;;;;;;31.04;38.04;100677.94;5036356;28;20740;-89
2021/06/18 10:19:22;;;;;;;0.50;0.10;;;;;;;31.06;41.37;100685.16;5040065;28;20064;-86
2021/06/18 10:22:02;;;;;;;0.10;0.10;;;;;;;30.92;35.14;100686.91;5042072;28;20053;-90
2021/06/18 10:24:37;;;;;;;0.10;0.10;;;;;;;31.02;36.31;100685.22;5050422;28;20056;-88
2021/06/18 10:27:18;;;;;;;0.10;0.10;;;;;;;31.13;39.22;100687.84;5043083;28;20052;-86
2021/06/18 10:29:58;;;;;;;0.10;0.10;;;;;;;31.10;38.29;100683.09;5038857;28;20060;-89
2021/06/18 10:32:37;;;;;;;0.10;0.10;;;;;;;31.24;40.48;100679.28;5041332;28;20037;-87
2021/06/18 10:35:07;;;;;;;0.10;0.10;;;;;;;31.14;41.20;100673.41;5039381;28;20057;-85
2021/06/18 10:37:48;;;;;;;0.10;0.10;;;;;;;31.27;35.19;100665.19;5044150;28;20053;-90
2021/06/18 10:40:16;;;;;;;0.10;0.10;;;;;;;31.18;35.63;100673.34;5038680;28;20060;-88
2021/06/18 10:43:13;;;;;;;0.10;0.10;;;;;;;31.20;41.23;100674.50;5042517;28;20061;-88
2021/06/18 10:46:07;;;;;;;0.20;0.17;;;;;;;31.39;37.31;100675.03;5046255;28;20056;-88
2021/06/18 10:49:10;;;;;;;0.10;0.10;;;;;;;31.35;33.35;100657.41;5046105;28;20047;-91
2021/06/18 10:51:46;;;;;;;0.20;0.20;;;;;;;31.55;36.10;100661.13;5027564;28;20057;-87
2021/06/18 10:54:29;;;;;;;0.10;0.10;;;;;;;31.57;32.90;100657.91;5019102;28;20440;-86
2021/06/18 10:57:04;;;;;;;0.10;0.10;;;;;;;31.59;32.11;100649.09;5021163;28;20049;-87
2021/06/18 10:59:39;;;;;;;0.28;0.10;;;;;;;31.41;31.76;100641.69;5022764;28;20059;-86
2021/06/18 11:02:41;;;;;;;0.50;0.10;;;;;;;31.62;35.26;100648.22;5015752;28;20056;-86
2021/06/18 11:05:38;;;;;;;0.10;0.10;;;;;;;31.68;32.92;100646.50;5032117;28;20056;-86
2021/06/18 11:08:27;;;;;;;0.20;0.10;;;;;;;31.75;32.26;100639.97;5044073;28;20049;-86
2021/06/18 11:11:00;;;;;;;0.10;0.10;;;;;;;31.76;32.50;100641.56;5041639;28;20151;-88
2021/06/18 11:13:33;;;;;;;0.10;0.10;;;;;;;31.90;32.08;100646.16;5040483;28;20049;-84
2021/06/18 11:16:08;;;;;;;0.28;0.10;;;;;;;31.84;32.96;100635.38;5041533;28;20063;-88
2021/06/18 11:18:43;;;;;;;0.10;0.10;;;;;;;31.98;34.30;100636.34;5042587;28;20039;-88
2021/06/18 11:21:24;;;;;;;0.03;0.03;;;;;;;31.96;36.73;100639.59;5041182;28;20053;-90
2021/06/18 11:24:01;;;;;;;;;;;;;;;32.02;32.11;100640.69;5040105;28;20049;-88
2021/06/18 11:26:34;;;;;;;0.10;0.10;;;;;;;31.94;33.04;100647.66;5039010;28;19928;-89
2021/06/18 11:29:26;;;;;;;0.10;0.10;;;;;;;32.06;31.68;100632.19;5043530;28;20726;-85
2021/06/18 11:31:59;;;;;;;0.10;0.10;;;;;;;32.04;33.90;100637.44;5037533;28;20060;-86
2021/06/18 11:34:36;;;;;;;0.10;0.10;;;;;;;32.17;33.61;100634.84;5038604;28;20060;-89
2021/06/18 11:37:04;;;;;;;0.00;0.00;;;;;;;32.25;32.22;100629.84;5037373;28;20049;-86
2021/06/18 11:39:38;;;;;;;0.20;0.10;;;;;;;32.13;30.97;100625.63;5039653;28;20598;-86
2021/06/18 11:42:11;;;;;;;0.10;0.10;;;;;;;32.28;34.81;100626.19;5039937;28;20056;-90
2021/06/18 11:44:41;;;;;;;0.10;0.10;;;;;;;32.29;31.26;100634.22;5043482;28;20067;-88
2021/06/18 11:47:14;;;;;;;0.10;0.10;;;;;;;32.28;34.57;100614.94;5040410;28;20053;-87
2021/06/18 11:49:49;;;;;;;0.10;0.10;;;;;;;32.36;30.73;100627.66;5048038;28;20106;-84
2021/06/18 11:52:30;;;;;;;0.10;0.10;;;;;;;32.40;34.62;100617.09;5047819;28;20055;-89
2021/06/18 11:55:29;;;;;;;0.10;0.10;;;;;;;32.59;35.32;100618.31;5044705;28;20068;-88
2021/06/18 11:58:03;;;;;;;0.10;0.10;;;;;;;32.54;36.04;100621.66;5043795;28;20052;-87